• Join FlightAware (Why Join?)
  • Login
  • US Flag 
03:39PM EST


 

Airport Tracker/Info


-or-


 

Live Flight TrackerFlight Track Log ✈ DAL6234 ✈ 30-Oct-2013 ✈ KLGA - KSYR

Flight Track Log - Related Links

Times and Time Zones

All times are in EDT time to prevent confusion due to time zone crossing. See the DAL6234 flight status page for this flight to view local times or setup timezone preferences in your user account.

Time Position Orientation Groundspeed Altitude Reporting Facility
EDT Latitude Longitude Course Direction KTS MPH feet Rate Location/Type
04:05PM 40.8264 -73.9028 315° West 197 227 2,800  Level New York Center
04:06PM 40.8864 -73.9167 350° North 213 245 4,900 2,880 Climbing New York Center
04:07PM 40.9411 -73.9742 322° Northwest 233 268 8,600 3,000 Climbing New York Center
04:08PM 40.9850 -74.0450 309° West 247 284 11,000 2,340 Climbing New York Center
04:09PM 41.0281 -74.1431 300° West 294 338 13,300 2,400 Climbing New York Center
04:10PM 41.0731 -74.2417 301° West 311 358 15,800 1,320 Climbing New York Center
04:11PM 41.1495 -74.2155 315° West  Level Estimated
04:11PM 41.1142 -74.3292 302° West 316 364 16,000  Level New York Center
04:12PM 41.1631 -74.4367 301° West 316 364 16,000  Level New York Center
04:13PM 41.2019 -74.5214 301° West 316 364 16,000 720 Level New York Center
04:14PM 41.2569 -74.6239 306° West 311 358 17,500 2,040 Climbing New York Center
04:15PM 41.3103 -74.7125 309° West 306 352 20,100 2,220 Climbing New York Center
04:16PM 41.3636 -74.8011 309° West 306 352 22,000 900 Climbing New York Center
04:17PM 41.4169 -74.8819 311° West 306 352 22,000  Level New York Center
04:18PM 41.4683 -74.9653 309° West 301 346 22,000 -420 Level New York Center
04:19PM 41.5236 -75.0492 311° West 301 346 21,200 -1,020 Descending New York Center
04:20PM 41.5744 -75.1356 308° West 296 341 20,000 -600 Descending New York Center
04:21PM 41.6236 -75.2164 309° West 296 341 20,000  Level New York Center
04:22PM 41.6725 -75.3031 307° West 291 335 20,000  Level New York Center
04:23PM 41.7211 -75.3869 308° West 291 335 20,000  Level New York Center
04:24PM 41.7700 -75.4681 309° West 291 335 20,000  Level New York Center
04:25PM 41.8189 -75.5522 308° West 291 335 20,000  Level New York Center
04:26PM 41.8675 -75.6339 309° West 291 335 20,000 -420 Level New York Center
04:27PM 41.9139 -75.7181 307° West 291 335 19,200 -960 Descending New York Center
04:28PM 41.9625 -75.7997 309° West 286 329 18,100 -900 Descending New York Center
04:29PM 42.0092 -75.8814 308° West 281 323 17,400 -900 Descending New York Center
04:30PM 42.0556 -75.9606 308° West 281 323 16,400 -1,020 Descending New York Center
04:31PM 42.1019 -76.0422 307° West 281 323 15,400 -1,020 Descending New York Center
04:32PM 42.1483 -76.1217 308° West 281 323 14,400 -1,020 Descending New York Center
04:33PM 42.2250 -76.1333 354° North 250 288 13,400 -960 Descending New York Center
04:34PM 42.3044 -76.1231 North 257 296 12,500 -960 Descending New York Center
04:35PM 42.3756 -76.1144 North 274 315 11,500 -780 Descending Boston Center
04:36PM 42.4514 -76.1053 North 273 314 10,900 -300 Descending Boston Center
04:37PM 42.5269 -76.0969 North 273 314 10,900  Level Boston Center
04:38PM 42.6181 -76.0856 North 274 315 10,900 -240 Level Boston Center
04:39PM 42.6906 -76.0808 North 266 306 10,500 -960 Descending Boston Center
04:40PM 42.7564 -76.0986 349° North 262 302 9,100 -1,500 Descending Boston Center
04:40PM 42.7639 -76.1025 339° North 264 304 9,000 -1,620 Descending Boston Center
04:41PM 42.8278 -76.1181 350° North 264 304 7,500 -1,680 Descending Boston Center
04:41PM 42.8356 -76.1228 336° Northwest 267 307 7,300 -1,740 Descending Boston Center
04:42PM 42.9039 -76.1392 350° North 256 295 5,600 -1,800 Descending Boston Center
04:43PM 42.9775 -76.1564 350° North 252 290 3,700 -1,860 Descending Boston Center
04:43PM 42.9725 -76.1556 173° South 253 291 3,700 -840 Level Boston Center
04:44PM 43.0383 -76.1756 347° North 210 242 2,900 -840 Descending Boston Center
04:44PM 43.0364 -76.1725 131° Southeast 246 283 2,900 -1,200 Level Boston Center
04:45PM 43.0856 -76.1875 347° North 152 175 1,700 -1,200 Descending Boston Center
04:45PM 43.0833 -76.1894 213° Southwest 209 241 1,700 -840 Level Boston Center
04:46PM 43.1064 -76.1533 49° Northeast 119 137 900 -780 Descending Boston Center
04:46PM 43.1086 -76.1592 298° West 159 183 900 -540 Level Boston Center
04:47PM 43.1086 -76.1100 90° East 117 135 300 -600 Descending Boston Center